sensor_id;sensor_type;location;lat;lon;timestamp;pressure;altitude;pressure_sealevel;temperature;humidity
30618;BME280;17384;51.214;9.202;2023-07-31T00:00:01;98378.13;;;14.97;92.94
30618;BME280;17384;51.214;9.202;2023-07-31T00:02:27;98381.69;;;14.97;93.28
30618;BME280;17384;51.214;9.202;2023-07-31T00:04:53;98379.22;;;14.96;93.37
30618;BME280;17384;51.214;9.202;2023-07-31T00:07:18;98364.47;;;14.97;93.30
30618;BME280;17384;51.214;9.202;2023-07-31T00:09:43;98354.13;;;14.99;92.65
30618;BME280;17384;51.214;9.202;2023-07-31T00:12:09;98374.38;;;15.03;92.93
30618;BME280;17384;51.214;9.202;2023-07-31T00:14:34;98373.31;;;15.04;92.76
30618;BME280;17384;51.214;9.202;2023-07-31T00:17:00;98357.75;;;15.04;92.59
30618;BME280;17384;51.214;9.202;2023-07-31T00:19:26;98361.00;;;15.06;92.88
30618;BME280;17384;51.214;9.202;2023-07-31T00:21:51;98355.03;;;15.09;92.19
30618;BME280;17384;51.214;9.202;2023-07-31T00:24:17;98346.91;;;15.14;92.20
30618;BME280;17384;51.214;9.202;2023-07-31T00:26:42;98350.09;;;15.06;92.35
30618;BME280;17384;51.214;9.202;2023-07-31T00:29:08;98352.06;;;15.11;92.22
30618;BME280;17384;51.214;9.202;2023-07-31T00:31:33;98346.09;;;15.14;91.60
30618;BME280;17384;51.214;9.202;2023-07-31T00:33:58;98345.59;;;15.17;91.29
30618;BME280;17384;51.214;9.202;2023-07-31T00:36:24;98340.63;;;15.14;91.60
30618;BME280;17384;51.214;9.202;2023-07-31T00:38:49;98335.16;;;15.14;91.42
30618;BME280;17384;51.214;9.202;2023-07-31T00:41:15;98345.59;;;15.17;91.98
30618;BME280;17384;51.214;9.202;2023-07-31T00:43:40;98337.13;;;15.18;91.79
30618;BME280;17384;51.214;9.202;2023-07-31T00:46:06;98345.06;;;15.20;91.47
30618;BME280;17384;51.214;9.202;2023-07-31T00:48:32;98337.44;;;15.22;91.45
30618;BME280;17384;51.214;9.202;2023-07-31T00:50:58;98335.53;;;15.22;90.89
30618;BME280;17384;51.214;9.202;2023-07-31T00:53:24;98325.19;;;15.24;90.62
30618;BME280;17384;51.214;9.202;2023-07-31T00:55:50;98330.53;;;15.14;91.30
30618;BME280;17384;51.214;9.202;2023-07-31T00:58:16;98325.75;;;15.27;91.07
30618;BME280;17384;51.214;9.202;2023-07-31T01:00:41;98319.19;;;15.28;90.72
30618;BME280;17384;51.214;9.202;2023-07-31T01:03:07;98314.31;;;15.30;90.19
30618;BME280;17384;51.214;9.202;2023-07-31T01:05:49;98310.19;;;15.32;90.21
30618;BME280;17384;51.214;9.202;2023-07-31T01:11:18;98298.47;;;15.32;90.13
30618;BME280;17384;51.214;9.202;2023-07-31T01:13:45;98303.13;;;15.31;90.00
30618;BME280;17384;51.214;9.202;2023-07-31T01:16:11;98308.03;;;15.34;90.19
30618;BME280;17384;51.214;9.202;2023-07-31T01:18:37;98310.50;;;15.36;90.24
30618;BME280;17384;51.214;9.202;2023-07-31T01:23:51;98294.13;;;15.36;90.42
30618;BME280;17384;51.214;9.202;2023-07-31T01:26:25;98293.00;;;15.32;90.87
30618;BME280;17384;51.214;9.202;2023-07-31T01:29:01;98300.09;;;15.33;91.08
30618;BME280;17384;51.214;9.202;2023-07-31T01:31:29;98290.81;;;15.34;90.89
30618;BME280;17384;51.214;9.202;2023-07-31T01:33:57;98296.84;;;15.36;90.96
30618;BME280;17384;51.214;9.202;2023-07-31T01:36:25;98299.88;;;15.39;91.01
30618;BME280;17384;51.214;9.202;2023-07-31T01:38:51;98293.03;;;15.37;90.62
30618;BME280;17384;51.214;9.202;2023-07-31T01:41:17;98299.88;;;15.39;91.07
30618;BME280;17384;51.214;9.202;2023-07-31T01:43:43;98289.47;;;15.36;90.61
30618;BME280;17384;51.214;9.202;2023-07-31T01:46:08;98299.06;;;15.39;90.89
30618;BME280;17384;51.214;9.202;2023-07-31T01:48:34;98293.66;;;15.44;90.86
30618;BME280;17384;51.214;9.202;2023-07-31T01:51:02;98296.13;;;15.45;90.95
30618;BME280;17384;51.214;9.202;2023-07-31T01:53:28;98291.22;;;15.47;91.31
30618;BME280;17384;51.214;9.202;2023-07-31T01:55:53;98293.13;;;15.47;91.40
30618;BME280;17384;51.214;9.202;2023-07-31T01:58:19;98293.69;;;15.49;91.03
30618;BME280;17384;51.214;9.202;2023-07-31T02:00:44;98285.44;;;15.44;91.11
30618;BME280;17384;51.214;9.202;2023-07-31T02:03:09;98278.66;;;15.46;91.53
30618;BME280;17384;51.214;9.202;2023-07-31T02:05:35;98277.31;;;15.49;91.46
30618;BME280;17384;51.214;9.202;2023-07-31T02:08:00;98262.75;;;15.43;91.83
30618;BME280;17384;51.214;9.202;2023-07-31T02:10:26;98253.72;;;15.43;91.90
30618;BME280;17384;51.214;9.202;2023-07-31T02:12:51;98256.47;;;15.43;91.84
30618;BME280;17384;51.214;9.202;2023-07-31T02:15:16;98272.41;;;15.51;91.52
30618;BME280;17384;51.214;9.202;2023-07-31T02:17:42;98249.41;;;15.47;91.36
30618;BME280;17384;51.214;9.202;2023-07-31T02:20:08;98262.25;;;15.46;92.06
30618;BME280;17384;51.214;9.202;2023-07-31T02:22:33;98251.03;;;15.48;91.72
30618;BME280;17384;51.214;9.202;2023-07-31T02:24:59;98261.53;;;15.56;91.15
30618;BME280;17384;51.214;9.202;2023-07-31T02:27:24;98256.31;;;15.54;91.12
30618;BME280;17384;51.214;9.202;2023-07-31T02:29:52;98255.00;;;15.62;91.06
30618;BME280;17384;51.214;9.202;2023-07-31T02:32:18;98249.28;;;15.64;89.86
30618;BME280;17384;51.214;9.202;2023-07-31T02:34:43;98261.66;;;15.71;90.15
30618;BME280;17384;51.214;9.202;2023-07-31T02:37:08;98250.19;;;15.74;89.63
30618;BME280;17384;51.214;9.202;2023-07-31T02:39:34;98256.47;;;15.75;89.60
30618;BME280;17384;51.214;9.202;2023-07-31T02:41:59;98267.69;;;15.73;89.81
30618;BME280;17384;51.214;9.202;2023-07-31T02:44:25;98257.63;;;15.79;89.48
30618;BME280;17384;51.214;9.202;2023-07-31T02:46:51;98255.47;;;15.86;88.81
30618;BME280;17384;51.214;9.202;2023-07-31T02:49:16;98251.09;;;15.85;88.57
30618;BME280;17384;51.214;9.202;2023-07-31T02:51:42;98260.97;;;15.86;88.69
30618;BME280;17384;51.214;9.202;2023-07-31T02:54:07;98262.56;;;15.87;88.98
30618;BME280;17384;51.214;9.202;2023-07-31T02:56:33;98262.88;;;15.90;88.46
30618;BME280;17384;51.214;9.202;2023-07-31T02:58:58;98270.53;;;15.88;88.56
30618;BME280;17384;51.214;9.202;2023-07-31T03:01:23;98255.75;;;15.89;88.46
30618;BME280;17384;51.214;9.202;2023-07-31T03:03:49;98258.22;;;15.91;87.80
30618;BME280;17384;51.214;9.202;2023-07-31T03:06:14;98261.22;;;15.89;88.45
30618;BME280;17384;51.214;9.202;2023-07-31T03:08:40;98260.44;;;15.94;88.03
30618;BME280;17384;51.214;9.202;2023-07-31T03:11:05;98254.97;;;15.94;87.55
30618;BME280;17384;51.214;9.202;2023-07-31T03:13:31;98271.66;;;15.93;87.66
30618;BME280;17384;51.214;9.202;2023-07-31T03:15:56;98264.00;;;15.95;88.07
30618;BME280;17384;51.214;9.202;2023-07-31T03:18:21;98264.03;;;16.00;87.73
30618;BME280;17384;51.214;9.202;2023-07-31T03:20:47;98266.78;;;16.00;87.54
30618;BME280;17384;51.214;9.202;2023-07-31T03:23:12;98266.25;;;16.03;87.39
30618;BME280;17384;51.214;9.202;2023-07-31T03:25:38;98261.84;;;15.97;87.81
30618;BME280;17384;51.214;9.202;2023-07-31T03:28:03;98252.31;;;16.04;87.13
30618;BME280;17384;51.214;9.202;2023-07-31T03:30:29;98253.63;;;15.97;87.33
30618;BME280;17384;51.214;9.202;2023-07-31T03:32:54;98256.69;;;16.05;87.13
30618;BME280;17384;51.214;9.202;2023-07-31T03:35:19;98259.44;;;16.05;87.25
30618;BME280;17384;51.214;9.202;2023-07-31T03:37:45;98267.09;;;16.03;87.52
30618;BME280;17384;51.214;9.202;2023-07-31T03:40:11;98255.06;;;16.04;86.22
30618;BME280;17384;51.214;9.202;2023-07-31T03:42:36;98262.69;;;16.02;86.62
30618;BME280;17384;51.214;9.202;2023-07-31T03:45:02;98264.03;;;16.00;86.58
30618;BME280;17384;51.214;9.202;2023-07-31T03:47:27;98267.38;;;16.07;86.35
30618;BME280;17384;51.214;9.202;2023-07-31T03:49:52;98244.41;;;16.08;84.86
30618;BME280;17384;51.214;9.202;2023-07-31T03:52:18;98253.13;;;16.05;84.14
30618;BME280;17384;51.214;9.202;2023-07-31T03:54:43;98263.53;;;16.03;84.53
30618;BME280;17384;51.214;9.202;2023-07-31T03:57:10;98270.63;;;16.04;84.48
30618;BME280;17384;51.214;9.202;2023-07-31T03:59:36;98260.84;;;16.13;84.21
30618;BME280;17384;51.214;9.202;2023-07-31T04:02:04;98264.56;;;15.97;85.01
30618;BME280;17384;51.214;9.202;2023-07-31T04:04:29;98261.03;;;16.01;84.23
30618;BME280;17384;51.214;9.202;2023-07-31T04:06:55;98253.19;;;16.15;82.96
30618;BME280;17384;51.214;9.202;2023-07-31T04:09:20;98268.50;;;16.11;83.46
30618;BME280;17384;51.214;9.202;2023-07-31T04:11:45;98264.91;;;16.05;83.87
30618;BME280;17384;51.214;9.202;2023-07-31T04:14:11;98260.78;;;16.03;84.23
30618;BME280;17384;51.214;9.202;2023-07-31T04:16:36;98248.94;;;15.92;84.50
30618;BME280;17384;51.214;9.202;2023-07-31T04:19:02;98265.72;;;16.06;84.19
30618;BME280;17384;51.214;9.202;2023-07-31T04:21:28;98254.53;;;16.07;83.71
30618;BME280;17384;51.214;9.202;2023-07-31T04:23:54;98261.31;;;16.00;84.59
30618;BME280;17384;51.214;9.202;2023-07-31T04:26:21;98256.44;;;16.07;84.37
30618;BME280;17384;51.214;9.202;2023-07-31T04:28:46;98256.72;;;16.10;83.73
30618;BME280;17384;51.214;9.202;2023-07-31T04:31:12;98253.19;;;16.15;83.59
30618;BME280;17384;51.214;9.202;2023-07-31T04:33:37;98253.16;;;16.10;83.69
30618;BME280;17384;51.214;9.202;2023-07-31T04:36:04;98255.34;;;16.08;84.07
30618;BME280;17384;51.214;9.202;2023-07-31T04:38:29;98257.25;;;16.07;84.04
30618;BME280;17384;51.214;9.202;2023-07-31T04:40:55;98245.50;;;16.07;84.20
30618;BME280;17384;51.214;9.202;2023-07-31T04:43:20;98259.16;;;16.07;84.53
30618;BME280;17384;51.214;9.202;2023-07-31T04:45:46;98252.53;;;15.98;85.07
30618;BME280;17384;51.214;9.202;2023-07-31T04:48:15;98253.19;;;16.15;84.27
30618;BME280;17384;51.214;9.202;2023-07-31T04:50:41;98252.34;;;16.14;84.41
30618;BME280;17384;51.214;9.202;2023-07-31T04:53:06;98251.81;;;16.17;84.27
30618;BME280;17384;51.214;9.202;2023-07-31T04:55:31;98241.41;;;16.14;84.99
30618;BME280;17384;51.214;9.202;2023-07-31T04:57:58;98242.00;;;16.21;84.59
30618;BME280;17384;51.214;9.202;2023-07-31T05:00:24;98250.22;;;16.21;84.63
30618;BME280;17384;51.214;9.202;2023-07-31T05:02:50;98247.44;;;16.16;85.50
30618;BME280;17384;51.214;9.202;2023-07-31T05:05:15;98241.41;;;16.14;85.02
30618;BME280;17384;51.214;9.202;2023-07-31T05:07:40;98258.38;;;16.11;85.68
30618;BME280;17384;51.214;9.202;2023-07-31T05:10:06;98243.34;;;16.19;85.28
30618;BME280;17384;51.214;9.202;2023-07-31T05:12:32;98261.38;;;16.15;85.82
30618;BME280;17384;51.214;9.202;2023-07-31T05:14:57;98252.34;;;16.14;85.79
30618;BME280;17384;51.214;9.202;2023-07-31T05:17:23;98249.34;;;16.16;86.19
30618;BME280;17384;51.214;9.202;2023-07-31T05:19:48;98256.44;;;16.07;85.94
30618;BME280;17384;51.214;9.202;2023-07-31T05:22:13;98254.25;;;16.14;85.74
30618;BME280;17384;51.214;9.202;2023-07-31T05:24:39;98246.88;;;16.09;86.08
30618;BME280;17384;51.214;9.202;2023-07-31T05:27:05;98241.66;;;16.08;86.77
30618;BME280;17384;51.214;9.202;2023-07-31T05:29:30;98247.13;;;16.08;86.60
30618;BME280;17384;51.214;9.202;2023-07-31T05:31:56;98240.53;;;16.04;87.53
30618;BME280;17384;51.214;9.202;2023-07-31T05:34:21;98240.50;;;15.99;88.22
30618;BME280;17384;51.214;9.202;2023-07-31T05:36:46;98235.56;;;15.96;88.81
30618;BME280;17384;51.214;9.202;2023-07-31T05:39:12;98238.97;;;16.13;86.70
30618;BME280;17384;51.214;9.202;2023-07-31T05:41:37;98240.38;;;16.25;87.12
30618;BME280;17384;51.214;9.202;2023-07-31T05:44:03;98236.28;;;16.28;86.67
30618;BME280;17384;51.214;9.202;2023-07-31T05:46:28;98234.13;;;16.30;87.00
30618;BME280;17384;51.214;9.202;2023-07-31T05:48:54;98246.69;;;16.26;87.63
30618;BME280;17384;51.214;9.202;2023-07-31T05:51:19;98232.41;;;16.19;87.78
30618;BME280;17384;51.214;9.202;2023-07-31T05:53:45;98230.47;;;16.14;88.08
30618;BME280;17384;51.214;9.202;2023-07-31T05:56:10;98233.19;;;16.14;88.94
30618;BME280;17384;51.214;9.202;2023-07-31T05:58:36;98223.88;;;16.05;89.82
30618;BME280;17384;51.214;9.202;2023-07-31T06:01:01;98226.00;;;15.98;90.78
30618;BME280;17384;51.214;9.202;2023-07-31T06:03:27;98227.88;;;15.93;91.32
30618;BME280;17384;51.214;9.202;2023-07-31T06:05:55;98219.94;;;15.91;91.07
30618;BME280;17384;51.214;9.202;2023-07-31T06:08:21;98233.34;;;15.93;91.36
30618;BME280;17384;51.214;9.202;2023-07-31T06:10:47;98232.53;;;15.92;91.16
30618;BME280;17384;51.214;9.202;2023-07-31T06:13:12;98234.69;;;15.90;91.65
30618;BME280;17384;51.214;9.202;2023-07-31T06:15:37;98234.97;;;15.88;92.05
30618;BME280;17384;51.214;9.202;2023-07-31T06:18:03;98241.50;;;15.87;93.02
30618;BME280;17384;51.214;9.202;2023-07-31T06:20:29;98231.66;;;15.81;93.46
30618;BME280;17384;51.214;9.202;2023-07-31T06:22:55;98230.78;;;15.76;94.44
30618;BME280;17384;51.214;9.202;2023-07-31T06:25:21;98233.53;;;15.76;94.63
30618;BME280;17384;51.214;9.202;2023-07-31T06:27:47;98234.88;;;15.73;94.93
30618;BME280;17384;51.214;9.202;2023-07-31T06:30:12;98229.09;;;15.70;95.16
30618;BME280;17384;51.214;9.202;2023-07-31T06:32:37;98242.75;;;15.70;96.07
30618;BME280;17384;51.214;9.202;2023-07-31T06:35:03;98224.38;;;15.60;97.17
30618;BME280;17384;51.214;9.202;2023-07-31T06:37:29;98226.56;;;15.58;98.02
30618;BME280;17384;51.214;9.202;2023-07-31T06:39:55;98232.03;;;15.58;98.08
30618;BME280;17384;51.214;9.202;2023-07-31T06:42:21;98223.44;;;15.49;99.00
30618;BME280;17384;51.214;9.202;2023-07-31T06:44:46;98214.94;;;15.46;100.00
30618;BME280;17384;51.214;9.202;2023-07-31T06:47:11;98218.19;;;15.43;100.00
30618;BME280;17384;51.214;9.202;2023-07-31T06:49:37;98222.31;;;15.45;100.00
30618;BME280;17384;51.214;9.202;2023-07-31T06:52:03;98211.13;;;15.47;100.00
30618;BME280;17384;51.214;9.202;2023-07-31T06:54:28;98204.88;;;15.51;100.00
30618;BME280;17384;51.214;9.202;2023-07-31T06:56:54;98199.78;;;15.65;100.00
30618;BME280;17384;51.214;9.202;2023-07-31T06:59:19;98200.13;;;15.74;100.00
30618;BME280;17384;51.214;9.202;2023-07-31T07:01:48;98214.16;;;15.87;99.73
30618;BME280;17384;51.214;9.202;2023-07-31T07:04:14;98221.09;;;16.00;99.93
30618;BME280;17384;51.214;9.202;2023-07-31T07:06:39;98224.69;;;16.06;97.69
30618;BME280;17384;51.214;9.202;2023-07-31T07:09:05;98218.91;;;16.02;97.65
30618;BME280;17384;51.214;9.202;2023-07-31T07:11:31;98223.91;;;16.10;98.15
30618;BME280;17384;51.214;9.202;2023-07-31T07:13:56;98211.50;;;15.98;97.87
30618;BME280;17384;51.214;9.202;2023-07-31T07:16:22;98224.66;;;16.01;98.59
30618;BME280;17384;51.214;9.202;2023-07-31T07:18:47;98216.50;;;16.11;97.64
30618;BME280;17384;51.214;9.202;2023-07-31T07:21:12;98218.13;;;16.07;97.11
30618;BME280;17384;51.214;9.202;2023-07-31T07:23:42;98214.38;;;16.23;96.63
30618;BME280;17384;51.214;9.202;2023-07-31T07:26:07;98220.94;;;16.22;96.16
30618;BME280;17384;51.214;9.202;2023-07-31T07:28:33;98214.34;;;16.18;95.27
30618;BME280;17384;51.214;9.202;2023-07-31T07:30:58;98214.34;;;16.18;94.78
30618;BME280;17384;51.214;9.202;2023-07-31T07:33:24;98214.06;;;16.19;93.99
30618;BME280;17384;51.214;9.202;2023-07-31T07:35:49;98212.72;;;16.22;93.76
30618;BME280;17384;51.214;9.202;2023-07-31T07:38:14;98211.38;;;16.24;94.50
30618;BME280;17384;51.214;9.202;2023-07-31T07:40:40;98210.00;;;16.27;94.34
30618;BME280;17384;51.214;9.202;2023-07-31T07:43:06;98202.41;;;16.39;94.07
30618;BME280;17384;51.214;9.202;2023-07-31T07:45:32;98193.16;;;16.55;93.10
30618;BME280;17384;51.214;9.202;2023-07-31T07:47:57;98187.75;;;16.66;91.05
30618;BME280;17384;51.214;9.202;2023-07-31T07:50:24;98193.81;;;16.83;92.02
30618;BME280;17384;51.214;9.202;2023-07-31T07:52:49;98183.69;;;16.88;90.52
30618;BME280;17384;51.214;9.202;2023-07-31T07:55:15;98175.72;;;16.87;90.76
30618;BME280;17384;51.214;9.202;2023-07-31T07:57:40;98176.81;;;16.96;90.02
30618;BME280;17384;51.214;9.202;2023-07-31T08:00:07;98180.13;;;16.98;89.95
30618;BME280;17384;51.214;9.202;2023-07-31T08:02:32;98180.94;;;17.04;90.41
30618;BME280;17384;51.214;9.202;2023-07-31T08:04:58;98181.22;;;16.97;89.14
30618;BME280;17384;51.214;9.202;2023-07-31T08:07:23;98165.03;;;16.85;88.64
30618;BME280;17384;51.214;9.202;2023-07-31T08:09:49;98181.19;;;16.82;89.78
30618;BME280;17384;51.214;9.202;2023-07-31T08:12:15;98171.03;;;16.77;89.32
30618;BME280;17384;51.214;9.202;2023-07-31T08:14:40;98169.41;;;16.76;89.48
30618;BME280;17384;51.214;9.202;2023-07-31T08:17:05;98165.84;;;16.76;90.31
30618;BME280;17384;51.214;9.202;2023-07-31T08:19:31;98164.47;;;16.78;90.85
30618;BME280;17384;51.214;9.202;2023-07-31T08:22:00;98165.28;;;16.74;90.19
30618;BME280;17384;51.214;9.202;2023-07-31T08:24:25;98166.94;;;16.75;90.66
30618;BME280;17384;51.214;9.202;2023-07-31T08:26:51;98167.47;;;16.72;91.08
30618;BME280;17384;51.214;9.202;2023-07-31T08:29:17;98171.59;;;16.79;91.85
30618;BME280;17384;51.214;9.202;2023-07-31T08:31:42;98176.28;;;16.84;91.80
30618;BME280;17384;51.214;9.202;2023-07-31T08:34:07;98171.06;;;16.82;91.45
30618;BME280;17384;51.214;9.202;2023-07-31T08:36:33;98169.94;;;16.78;91.40
30618;BME280;17384;51.214;9.202;2023-07-31T08:38:58;98181.72;;;16.79;90.67
30618;BME280;17384;51.214;9.202;2023-07-31T08:41:24;98168.03;;;16.74;92.02
30618;BME280;17384;51.214;9.202;2023-07-31T08:43:51;98175.97;;;16.75;92.20
30618;BME280;17384;51.214;9.202;2023-07-31T08:46:17;98171.34;;;16.86;92.47
30618;BME280;17384;51.214;9.202;2023-07-31T08:48:44;98174.66;;;16.93;90.42
30618;BME280;17384;51.214;9.202;2023-07-31T08:51:10;98185.59;;;16.98;92.47
30618;BME280;17384;51.214;9.202;2023-07-31T08:53:36;98180.38;;;16.97;91.23
30618;BME280;17384;51.214;9.202;2023-07-31T08:56:02;98172.19;;;16.91;91.21
30618;BME280;17384;51.214;9.202;2023-07-31T08:58:31;98173.00;;;16.87;90.94
30618;BME280;17384;51.214;9.202;2023-07-31T09:00:58;98175.19;;;16.90;90.98
30618;BME280;17384;51.214;9.202;2023-07-31T09:03:26;98185.34;;;16.95;91.26
30618;BME280;17384;51.214;9.202;2023-07-31T09:05:51;98180.94;;;16.99;91.74
30618;BME280;17384;51.214;9.202;2023-07-31T09:08:20;98181.50;;;17.01;90.96
30618;BME280;17384;51.214;9.202;2023-07-31T09:10:46;98171.63;;;17.05;90.70
30618;BME280;17384;51.214;9.202;2023-07-31T09:13:13;98175.22;;;17.10;91.77
30618;BME280;17384;51.214;9.202;2023-07-31T09:15:40;98170.28;;;17.07;90.60
30618;BME280;17384;51.214;9.202;2023-07-31T09:18:07;98159.28;;;17.02;90.18
30618;BME280;17384;51.214;9.202;2023-07-31T09:20:33;98162.03;;;16.97;90.83
30618;BME280;17384;51.214;9.202;2023-07-31T09:23:07;98169.16;;;16.98;90.90
30618;BME280;17384;51.214;9.202;2023-07-31T09:25:33;98164.75;;;16.97;91.89
30618;BME280;17384;51.214;9.202;2023-07-31T09:28:01;98155.47;;;16.88;91.92
30618;BME280;17384;51.214;9.202;2023-07-31T09:30:26;98154.88;;;16.76;92.31
30618;BME280;17384;51.214;9.202;2023-07-31T09:33:03;98145.03;;;16.80;92.94
30618;BME280;17384;51.214;9.202;2023-07-31T09:35:33;98148.88;;;16.84;93.55
30618;BME280;17384;51.214;9.202;2023-07-31T09:38:00;98156.56;;;16.92;94.52
30618;BME280;17384;51.214;9.202;2023-07-31T09:40:33;98136.25;;;16.98;94.88
30618;BME280;17384;51.214;9.202;2023-07-31T09:43:00;98141.22;;;17.01;94.05
30618;BME280;17384;51.214;9.202;2023-07-31T09:45:27;98143.69;;;17.13;93.63
30618;BME280;17384;51.214;9.202;2023-07-31T09:47:53;98144.78;;;17.22;93.25
30618;BME280;17384;51.214;9.202;2023-07-31T09:50:21;98138.19;;;17.33;93.03
30618;BME280;17384;51.214;9.202;2023-07-31T09:52:47;98135.44;;;17.28;92.86
30618;BME280;17384;51.214;9.202;2023-07-31T09:55:12;98131.09;;;17.22;92.09
30618;BME280;17384;51.214;9.202;2023-07-31T09:57:43;98132.16;;;17.31;93.54
30618;BME280;17384;51.214;9.202;2023-07-31T10:00:10;98132.19;;;17.21;91.41
30618;BME280;17384;51.214;9.202;2023-07-31T10:02:37;98118.75;;;17.19;91.19
30618;BME280;17384;51.214;9.202;2023-07-31T10:05:04;98120.38;;;17.25;91.87
30618;BME280;17384;51.214;9.202;2023-07-31T10:07:31;98129.41;;;17.36;92.50
30618;BME280;17384;51.214;9.202;2023-07-31T10:10:00;98121.75;;;17.43;91.97
30618;BME280;17384;51.214;9.202;2023-07-31T10:12:26;98123.38;;;17.49;93.33
30618;BME280;17384;51.214;9.202;2023-07-31T10:14:55;98127.78;;;17.50;92.05
30618;BME280;17384;51.214;9.202;2023-07-31T10:17:22;98115.16;;;17.49;93.48
30618;BME280;17384;51.214;9.202;2023-07-31T10:19:48;98127.19;;;17.53;93.16
30618;BME280;17384;51.214;9.202;2023-07-31T10:22:14;98118.69;;;17.55;90.15
30618;BME280;17384;51.214;9.202;2023-07-31T10:24:42;98117.59;;;17.66;92.12
30618;BME280;17384;51.214;9.202;2023-07-31T10:27:09;98123.91;;;17.51;91.37
30618;BME280;17384;51.214;9.202;2023-07-31T10:29:36;98113.78;;;17.47;91.11
30618;BME280;17384;51.214;9.202;2023-07-31T10:32:04;98104.47;;;17.43;91.89
30618;BME280;17384;51.214;9.202;2023-07-31T10:34:34;98104.19;;;17.34;90.41
30618;BME280;17384;51.214;9.202;2023-07-31T10:37:39;98116.53;;;17.26;90.68
30618;BME280;17384;51.214;9.202;2023-07-31T10:40:10;98111.31;;;17.30;90.88
30618;BME280;17384;51.214;9.202;2023-07-31T10:42:44;98105.28;;;17.28;89.69
30618;BME280;17384;51.214;9.202;2023-07-31T10:45:10;98100.06;;;17.42;91.60
30618;BME280;17384;51.214;9.202;2023-07-31T10:47:43;98098.44;;;17.46;89.60
30618;BME280;17384;51.214;9.202;2023-07-31T10:50:16;98112.09;;;17.56;89.36
30618;BME280;17384;51.214;9.202;2023-07-31T10:52:46;98104.41;;;17.63;89.34
30618;BME280;17384;51.214;9.202;2023-07-31T10:55:46;98101.59;;;17.99;88.78
30618;BME280;17384;51.214;9.202;2023-07-31T10:58:13;98099.28;;;18.21;85.76
30618;BME280;17384;51.214;9.202;2023-07-31T11:00:43;98092.59;;;18.37;85.11
30618;BME280;17384;51.214;9.202;2023-07-31T11:03:10;98104.69;;;18.41;85.53
30618;BME280;17384;51.214;9.202;2023-07-31T11:05:53;98103.88;;;18.36;84.59
30618;BME280;17384;51.214;9.202;2023-07-31T11:08:24;98089.31;;;18.35;85.25
30618;BME280;17384;51.214;9.202;2023-07-31T11:11:14;98096.16;;;18.43;83.82
30618;BME280;17384;51.214;9.202;2023-07-31T11:13:51;98092.06;;;18.35;83.57
30618;BME280;17384;51.214;9.202;2023-07-31T11:16:22;98086.53;;;18.45;84.48
30618;BME280;17384;51.214;9.202;2023-07-31T11:18:48;98089.31;;;18.40;85.53
30618;BME280;17384;51.214;9.202;2023-07-31T11:21:22;98089.31;;;18.35;84.14
30618;BME280;17384;51.214;9.202;2023-07-31T11:23:50;98087.72;;;18.29;84.96
30618;BME280;17384;51.214;9.202;2023-07-31T11:26:17;98081.84;;;17.97;84.17
30618;BME280;17384;51.214;9.202;2023-07-31T11:28:47;98082.72;;;17.82;84.77
30618;BME280;17384;51.214;9.202;2023-07-31T11:31:13;98081.38;;;17.74;85.27
30618;BME280;17384;51.214;9.202;2023-07-31T11:33:38;98085.19;;;17.78;85.46
30618;BME280;17384;51.214;9.202;2023-07-31T11:36:04;98081.31;;;17.84;85.23
30618;BME280;17384;51.214;9.202;2023-07-31T11:38:32;98099.41;;;18.01;85.74
30618;BME280;17384;51.214;9.202;2023-07-31T11:41:04;98093.66;;;17.92;84.22
30618;BME280;17384;51.214;9.202;2023-07-31T11:43:33;98085.72;;;17.80;84.68
30618;BME280;17384;51.214;9.202;2023-07-31T11:46:01;98082.72;;;17.82;84.83
30618;BME280;17384;51.214;9.202;2023-07-31T11:51:07;98087.09;;;17.88;85.21
30618;BME280;17384;51.214;9.202;2023-07-31T11:53:40;98084.88;;;17.95;84.14
30618;BME280;17384;51.214;9.202;2023-07-31T11:56:07;98071.94;;;18.01;82.68
30618;BME280;17384;51.214;9.202;2023-07-31T11:58:34;98099.06;;;18.12;84.39
30618;BME280;17384;51.214;9.202;2023-07-31T12:01:01;98088.16;;;17.97;82.35
30618;BME280;17384;51.214;9.202;2023-07-31T12:03:27;98096.09;;;17.99;84.02
30618;BME280;17384;51.214;9.202;2023-07-31T12:05:53;98096.66;;;17.96;84.49
30618;BME280;17384;51.214;9.202;2023-07-31T12:08:21;98088.72;;;17.89;84.34
30618;BME280;17384;51.214;9.202;2023-07-31T12:10:50;98056.41;;;17.76;84.02
30618;BME280;17384;51.214;9.202;2023-07-31T12:13:26;98073.16;;;17.54;85.69
30618;BME280;17384;51.214;9.202;2023-07-31T12:16:00;98075.34;;;17.52;86.51
30618;BME280;17384;51.214;9.202;2023-07-31T12:18:27;98072.09;;;17.50;86.64
30618;BME280;17384;51.214;9.202;2023-07-31T12:20:58;98067.72;;;17.44;86.28
30618;BME280;17384;51.214;9.202;2023-07-31T12:23:27;98077.03;;;17.43;87.02
30618;BME280;17384;51.214;9.202;2023-07-31T12:26:13;98076.50;;;17.41;87.81
30618;BME280;17384;51.214;9.202;2023-07-31T12:28:49;98085.00;;;17.44;87.64
30618;BME280;17384;51.214;9.202;2023-07-31T12:31:21;98060.31;;;17.49;87.56
30618;BME280;17384;51.214;9.202;2023-07-31T12:33:49;98067.66;;;17.54;87.51
30618;BME280;17384;51.214;9.202;2023-07-31T12:36:16;98074.78;;;17.60;87.27
30618;BME280;17384;51.214;9.202;2023-07-31T12:38:42;98063.28;;;17.68;87.15
30618;BME280;17384;51.214;9.202;2023-07-31T12:41:08;98055.84;;;17.64;86.47
30618;BME280;17384;51.214;9.202;2023-07-31T12:43:35;98060.53;;;17.73;87.77
30618;BME280;17384;51.214;9.202;2023-07-31T12:46:00;98056.09;;;17.82;86.87
30618;BME280;17384;51.214;9.202;2023-07-31T12:48:26;98065.09;;;17.98;86.51
30618;BME280;17384;51.214;9.202;2023-07-31T12:50:51;98072.16;;;18.09;85.61
30618;BME280;17384;51.214;9.202;2023-07-31T12:53:17;98072.69;;;18.11;85.76
30618;BME280;17384;51.214;9.202;2023-07-31T12:55:43;98072.41;;;18.18;85.60
30618;BME280;17384;51.214;9.202;2023-07-31T12:58:09;98076.38;;;18.41;85.43
30618;BME280;17384;51.214;9.202;2023-07-31T13:00:34;98068.38;;;18.49;85.88
30618;BME280;17384;51.214;9.202;2023-07-31T13:03:00;98058.28;;;18.35;84.19
30618;BME280;17384;51.214;9.202;2023-07-31T13:05:27;98048.22;;;18.20;84.63